sensor_id;sensor_type;location;lat;lon;timestamp;P1;durP1;ratioP1;P2;durP2;ratioP2
57241;SDS011;43095;53.302;5.786;2023-04-25T00:01:54;34.15;;;4.95;;
57241;SDS011;43095;53.302;5.786;2023-04-25T00:04:23;25.92;;;4.65;;
57241;SDS011;43095;53.302;5.786;2023-04-25T00:06:50;28.35;;;4.10;;
57241;SDS011;43095;53.302;5.786;2023-04-25T00:09:18;26.27;;;5.13;;
57241;SDS011;43095;53.302;5.786;2023-04-25T00:11:46;25.35;;;5.15;;
57241;SDS011;43095;53.302;5.786;2023-04-25T00:14:14;25.75;;;4.22;;
57241;SDS011;43095;53.302;5.786;2023-04-25T00:16:43;25.10;;;5.03;;
57241;SDS011;43095;53.302;5.786;2023-04-25T00:19:10;24.90;;;4.82;;
57241;SDS011;43095;53.302;5.786;2023-04-25T00:21:39;21.77;;;4.43;;
57241;SDS011;43095;53.302;5.786;2023-04-25T00:24:12;17.70;;;3.53;;
57241;SDS011;43095;53.302;5.786;2023-04-25T00:26:39;16.73;;;2.92;;
57241;SDS011;43095;53.302;5.786;2023-04-25T00:29:06;17.67;;;3.20;;
57241;SDS011;43095;53.302;5.786;2023-04-25T00:31:34;19.70;;;3.03;;
57241;SDS011;43095;53.302;5.786;2023-04-25T00:34:04;28.25;;;5.25;;
57241;SDS011;43095;53.302;5.786;2023-04-25T00:36:31;19.27;;;3.85;;
57241;SDS011;43095;53.302;5.786;2023-04-25T00:39:00;24.27;;;3.78;;
57241;SDS011;43095;53.302;5.786;2023-04-25T00:41:28;21.33;;;4.13;;
57241;SDS011;43095;53.302;5.786;2023-04-25T00:43:56;19.13;;;3.50;;
57241;SDS011;43095;53.302;5.786;2023-04-25T00:46:24;17.20;;;3.05;;
57241;SDS011;43095;53.302;5.786;2023-04-25T00:48:51;20.35;;;2.92;;
57241;SDS011;43095;53.302;5.786;2023-04-25T00:51:19;16.33;;;3.47;;
57241;SDS011;43095;53.302;5.786;2023-04-25T00:53:47;18.75;;;3.40;;
57241;SDS011;43095;53.302;5.786;2023-04-25T00:56:16;24.95;;;3.72;;
57241;SDS011;43095;53.302;5.786;2023-04-25T00:58:44;17.90;;;3.17;;
57241;SDS011;43095;53.302;5.786;2023-04-25T01:01:12;26.52;;;3.78;;
57241;SDS011;43095;53.302;5.786;2023-04-25T01:03:40;23.13;;;3.75;;
57241;SDS011;43095;53.302;5.786;2023-04-25T01:06:08;19.02;;;3.55;;
57241;SDS011;43095;53.302;5.786;2023-04-25T01:08:37;24.55;;;3.45;;
57241;SDS011;43095;53.302;5.786;2023-04-25T01:11:05;19.90;;;3.50;;
57241;SDS011;43095;53.302;5.786;2023-04-25T01:13:33;16.65;;;2.55;;
57241;SDS011;43095;53.302;5.786;2023-04-25T01:16:01;11.90;;;2.28;;
57241;SDS011;43095;53.302;5.786;2023-04-25T01:18:29;14.73;;;2.50;;
57241;SDS011;43095;53.302;5.786;2023-04-25T01:20:56;17.73;;;3.45;;
57241;SDS011;43095;53.302;5.786;2023-04-25T01:23:25;20.15;;;3.30;;
57241;SDS011;43095;53.302;5.786;2023-04-25T01:25:53;15.05;;;3.05;;
57241;SDS011;43095;53.302;5.786;2023-04-25T01:28:21;14.40;;;3.00;;
57241;SDS011;43095;53.302;5.786;2023-04-25T01:30:48;16.40;;;2.53;;
57241;SDS011;43095;53.302;5.786;2023-04-25T01:33:16;13.65;;;2.63;;
57241;SDS011;43095;53.302;5.786;2023-04-25T01:35:44;26.27;;;4.57;;
57241;SDS011;43095;53.302;5.786;2023-04-25T01:38:11;13.05;;;2.45;;
57241;SDS011;43095;53.302;5.786;2023-04-25T01:40:40;17.48;;;3.42;;
57241;SDS011;43095;53.302;5.786;2023-04-25T01:43:08;22.00;;;4.03;;
57241;SDS011;43095;53.302;5.786;2023-04-25T01:45:39;21.20;;;3.60;;
57241;SDS011;43095;53.302;5.786;2023-04-25T01:48:09;15.95;;;3.03;;
57241;SDS011;43095;53.302;5.786;2023-04-25T01:50:38;21.98;;;3.55;;
57241;SDS011;43095;53.302;5.786;2023-04-25T01:53:06;22.70;;;3.28;;
57241;SDS011;43095;53.302;5.786;2023-04-25T01:55:33;14.23;;;2.17;;
57241;SDS011;43095;53.302;5.786;2023-04-25T01:58:09;17.00;;;2.90;;
57241;SDS011;43095;53.302;5.786;2023-04-25T02:01:06;17.33;;;2.90;;
57241;SDS011;43095;53.302;5.786;2023-04-25T02:03:41;16.45;;;3.30;;
57241;SDS011;43095;53.302;5.786;2023-04-25T02:06:17;18.92;;;2.47;;
57241;SDS011;43095;53.302;5.786;2023-04-25T02:08:46;21.58;;;3.15;;
57241;SDS011;43095;53.302;5.786;2023-04-25T02:11:15;22.75;;;3.45;;
57241;SDS011;43095;53.302;5.786;2023-04-25T02:14:01;11.98;;;2.17;;
57241;SDS011;43095;53.302;5.786;2023-04-25T02:16:43;13.20;;;1.35;;
57241;SDS011;43095;53.302;5.786;2023-04-25T02:19:10;8.25;;;1.83;;
57241;SDS011;43095;53.302;5.786;2023-04-25T02:21:38;11.48;;;1.70;;
57241;SDS011;43095;53.302;5.786;2023-04-25T02:24:06;7.80;;;1.50;;
57241;SDS011;43095;53.302;5.786;2023-04-25T02:26:33;13.43;;;2.08;;
57241;SDS011;43095;53.302;5.786;2023-04-25T02:29:01;17.67;;;3.15;;
57241;SDS011;43095;53.302;5.786;2023-04-25T02:31:28;15.82;;;2.83;;
57241;SDS011;43095;53.302;5.786;2023-04-25T02:33:57;19.90;;;2.58;;
57241;SDS011;43095;53.302;5.786;2023-04-25T02:36:26;20.92;;;3.67;;
57241;SDS011;43095;53.302;5.786;2023-04-25T02:38:54;26.02;;;4.03;;
57241;SDS011;43095;53.302;5.786;2023-04-25T02:41:21;17.77;;;2.70;;
57241;SDS011;43095;53.302;5.786;2023-04-25T02:43:48;15.38;;;2.95;;
57241;SDS011;43095;53.302;5.786;2023-04-25T02:46:17;17.85;;;3.38;;
57241;SDS011;43095;53.302;5.786;2023-04-25T02:49:03;22.50;;;2.92;;
57241;SDS011;43095;53.302;5.786;2023-04-25T02:51:31;20.50;;;3.88;;
57241;SDS011;43095;53.302;5.786;2023-04-25T02:54:00;26.50;;;3.67;;
57241;SDS011;43095;53.302;5.786;2023-04-25T02:56:30;21.58;;;3.10;;
57241;SDS011;43095;53.302;5.786;2023-04-25T02:58:58;14.75;;;2.13;;
57241;SDS011;43095;53.302;5.786;2023-04-25T03:01:26;18.38;;;3.00;;
57241;SDS011;43095;53.302;5.786;2023-04-25T03:03:53;19.38;;;3.08;;
57241;SDS011;43095;53.302;5.786;2023-04-25T03:06:21;14.10;;;2.65;;
57241;SDS011;43095;53.302;5.786;2023-04-25T03:08:49;24.58;;;3.40;;
57241;SDS011;43095;53.302;5.786;2023-04-25T03:11:16;13.88;;;3.55;;
57241;SDS011;43095;53.302;5.786;2023-04-25T03:13:46;18.90;;;3.50;;
57241;SDS011;43095;53.302;5.786;2023-04-25T03:16:14;20.50;;;3.25;;
57241;SDS011;43095;53.302;5.786;2023-04-25T03:18:42;18.63;;;3.05;;
57241;SDS011;43095;53.302;5.786;2023-04-25T03:21:11;20.98;;;3.05;;
57241;SDS011;43095;53.302;5.786;2023-04-25T03:23:38;12.75;;;2.35;;
57241;SDS011;43095;53.302;5.786;2023-04-25T03:26:06;14.32;;;2.65;;
57241;SDS011;43095;53.302;5.786;2023-04-25T03:28:34;18.17;;;2.67;;
57241;SDS011;43095;53.302;5.786;2023-04-25T03:31:01;15.38;;;2.05;;
57241;SDS011;43095;53.302;5.786;2023-04-25T03:33:30;14.13;;;2.50;;
57241;SDS011;43095;53.302;5.786;2023-04-25T03:35:58;16.27;;;2.13;;
57241;SDS011;43095;53.302;5.786;2023-04-25T03:38:27;18.58;;;2.88;;
57241;SDS011;43095;53.302;5.786;2023-04-25T03:40:54;14.88;;;2.63;;
57241;SDS011;43095;53.302;5.786;2023-04-25T03:43:35;18.35;;;2.22;;
57241;SDS011;43095;53.302;5.786;2023-04-25T03:46:08;14.02;;;2.90;;
57241;SDS011;43095;53.302;5.786;2023-04-25T03:48:37;20.17;;;2.88;;
57241;SDS011;43095;53.302;5.786;2023-04-25T03:51:05;12.70;;;3.05;;
57241;SDS011;43095;53.302;5.786;2023-04-25T03:53:37;12.65;;;2.22;;
57241;SDS011;43095;53.302;5.786;2023-04-25T03:56:23;15.07;;;2.60;;
57241;SDS011;43095;53.302;5.786;2023-04-25T03:59:00;23.33;;;2.55;;
57241;SDS011;43095;53.302;5.786;2023-04-25T04:01:29;10.63;;;2.20;;
57241;SDS011;43095;53.302;5.786;2023-04-25T04:03:56;21.15;;;3.33;;
57241;SDS011;43095;53.302;5.786;2023-04-25T04:06:25;14.10;;;2.55;;
57241;SDS011;43095;53.302;5.786;2023-04-25T04:09:01;17.77;;;3.00;;
57241;SDS011;43095;53.302;5.786;2023-04-25T04:11:31;15.27;;;2.90;;
57241;SDS011;43095;53.302;5.786;2023-04-25T04:13:59;15.32;;;2.75;;
57241;SDS011;43095;53.302;5.786;2023-04-25T04:16:27;13.32;;;3.25;;
57241;SDS011;43095;53.302;5.786;2023-04-25T04:18:55;12.35;;;2.40;;
57241;SDS011;43095;53.302;5.786;2023-04-25T04:21:23;14.05;;;2.03;;
57241;SDS011;43095;53.302;5.786;2023-04-25T04:23:50;16.58;;;2.15;;
57241;SDS011;43095;53.302;5.786;2023-04-25T04:26:19;16.80;;;2.95;;
57241;SDS011;43095;53.302;5.786;2023-04-25T04:28:58;15.20;;;1.83;;
57241;SDS011;43095;53.302;5.786;2023-04-25T04:31:37;10.73;;;1.83;;
57241;SDS011;43095;53.302;5.786;2023-04-25T04:34:05;10.68;;;2.08;;
57241;SDS011;43095;53.302;5.786;2023-04-25T04:36:34;11.38;;;1.95;;
57241;SDS011;43095;53.302;5.786;2023-04-25T04:39:01;19.00;;;2.58;;
57241;SDS011;43095;53.302;5.786;2023-04-25T04:41:49;10.80;;;2.20;;
57241;SDS011;43095;53.302;5.786;2023-04-25T04:44:53;14.63;;;1.65;;
57241;SDS011;43095;53.302;5.786;2023-04-25T04:47:47;14.43;;;2.70;;
57241;SDS011;43095;53.302;5.786;2023-04-25T04:50:38;17.95;;;2.55;;
57241;SDS011;43095;53.302;5.786;2023-04-25T04:53:23;17.67;;;2.90;;
57241;SDS011;43095;53.302;5.786;2023-04-25T04:56:09;17.40;;;1.80;;
57241;SDS011;43095;53.302;5.786;2023-04-25T04:59:07;15.70;;;2.17;;
57241;SDS011;43095;53.302;5.786;2023-04-25T05:01:54;14.77;;;2.10;;
57241;SDS011;43095;53.302;5.786;2023-04-25T05:04:35;14.55;;;2.60;;
57241;SDS011;43095;53.302;5.786;2023-04-25T05:07:14;11.73;;;2.28;;
57241;SDS011;43095;53.302;5.786;2023-04-25T05:10:01;12.30;;;2.33;;
57241;SDS011;43095;53.302;5.786;2023-04-25T05:12:38;11.52;;;1.95;;
57241;SDS011;43095;53.302;5.786;2023-04-25T05:15:26;10.13;;;1.60;;
57241;SDS011;43095;53.302;5.786;2023-04-25T05:18:16;12.73;;;1.70;;
57241;SDS011;43095;53.302;5.786;2023-04-25T05:21:04;12.80;;;1.88;;
57241;SDS011;43095;53.302;5.786;2023-04-25T05:23:47;12.38;;;2.00;;
57241;SDS011;43095;53.302;5.786;2023-04-25T05:26:44;19.50;;;3.45;;
57241;SDS011;43095;53.302;5.786;2023-04-25T05:29:35;12.48;;;1.95;;
57241;SDS011;43095;53.302;5.786;2023-04-25T05:32:22;12.75;;;2.58;;
57241;SDS011;43095;53.302;5.786;2023-04-25T05:34:51;12.35;;;2.65;;
57241;SDS011;43095;53.302;5.786;2023-04-25T05:37:29;11.02;;;1.90;;
57241;SDS011;43095;53.302;5.786;2023-04-25T05:40:08;13.25;;;2.35;;
57241;SDS011;43095;53.302;5.786;2023-04-25T05:42:49;10.10;;;1.63;;
57241;SDS011;43095;53.302;5.786;2023-04-25T05:45:26;7.22;;;0.93;;
57241;SDS011;43095;53.302;5.786;2023-04-25T05:48:28;9.63;;;1.05;;
57241;SDS011;43095;53.302;5.786;2023-04-25T05:51:07;15.23;;;1.92;;
57241;SDS011;43095;53.302;5.786;2023-04-25T05:53:55;13.93;;;1.95;;
57241;SDS011;43095;53.302;5.786;2023-04-25T05:56:22;10.65;;;1.80;;
57241;SDS011;43095;53.302;5.786;2023-04-25T05:58:52;13.38;;;2.13;;
57241;SDS011;43095;53.302;5.786;2023-04-25T06:01:19;12.57;;;1.98;;
57241;SDS011;43095;53.302;5.786;2023-04-25T06:03:47;10.32;;;2.42;;
57241;SDS011;43095;53.302;5.786;2023-04-25T06:06:16;17.30;;;2.80;;
57241;SDS011;43095;53.302;5.786;2023-04-25T06:08:45;11.18;;;2.35;;
57241;SDS011;43095;53.302;5.786;2023-04-25T06:11:13;12.10;;;2.10;;
57241;SDS011;43095;53.302;5.786;2023-04-25T06:13:40;13.55;;;2.47;;
57241;SDS011;43095;53.302;5.786;2023-04-25T06:16:08;12.27;;;2.33;;
57241;SDS011;43095;53.302;5.786;2023-04-25T06:18:36;15.57;;;2.25;;
57241;SDS011;43095;53.302;5.786;2023-04-25T06:21:04;16.38;;;2.45;;
57241;SDS011;43095;53.302;5.786;2023-04-25T06:23:32;11.43;;;1.73;;
57241;SDS011;43095;53.302;5.786;2023-04-25T06:26:06;10.52;;;2.03;;
57241;SDS011;43095;53.302;5.786;2023-04-25T06:28:37;12.50;;;2.08;;
57241;SDS011;43095;53.302;5.786;2023-04-25T06:31:05;18.08;;;2.22;;
57241;SDS011;43095;53.302;5.786;2023-04-25T06:33:33;12.30;;;2.15;;
57241;SDS011;43095;53.302;5.786;2023-04-25T06:36:03;12.85;;;1.88;;
57241;SDS011;43095;53.302;5.786;2023-04-25T06:38:33;9.30;;;1.67;;
57241;SDS011;43095;53.302;5.786;2023-04-25T06:41:01;9.90;;;1.40;;
57241;SDS011;43095;53.302;5.786;2023-04-25T06:43:32;11.18;;;1.88;;
57241;SDS011;43095;53.302;5.786;2023-04-25T06:46:19;7.80;;;1.83;;
57241;SDS011;43095;53.302;5.786;2023-04-25T06:48:48;9.73;;;1.40;;
57241;SDS011;43095;53.302;5.786;2023-04-25T06:51:19;10.63;;;2.58;;
57241;SDS011;43095;53.302;5.786;2023-04-25T06:53:51;11.70;;;1.50;;
57241;SDS011;43095;53.302;5.786;2023-04-25T06:56:28;9.45;;;1.80;;
57241;SDS011;43095;53.302;5.786;2023-04-25T06:59:04;16.08;;;2.15;;
57241;SDS011;43095;53.302;5.786;2023-04-25T07:01:35;17.00;;;2.63;;
57241;SDS011;43095;53.302;5.786;2023-04-25T07:04:07;10.93;;;1.83;;
57241;SDS011;43095;53.302;5.786;2023-04-25T07:06:40;12.82;;;2.65;;
57241;SDS011;43095;53.302;5.786;2023-04-25T07:09:10;8.43;;;1.45;;
57241;SDS011;43095;53.302;5.786;2023-04-25T07:11:39;13.32;;;2.17;;
57241;SDS011;43095;53.302;5.786;2023-04-25T07:14:07;10.40;;;1.80;;
57241;SDS011;43095;53.302;5.786;2023-04-25T07:16:34;15.07;;;2.38;;
57241;SDS011;43095;53.302;5.786;2023-04-25T07:19:02;12.73;;;2.70;;
57241;SDS011;43095;53.302;5.786;2023-04-25T07:21:30;11.93;;;1.92;;
57241;SDS011;43095;53.302;5.786;2023-04-25T07:24:02;14.50;;;1.98;;
57241;SDS011;43095;53.302;5.786;2023-04-25T07:26:33;12.57;;;2.15;;
57241;SDS011;43095;53.302;5.786;2023-04-25T07:29:31;14.52;;;1.85;;
57241;SDS011;43095;53.302;5.786;2023-04-25T07:31:59;11.18;;;1.95;;
57241;SDS011;43095;53.302;5.786;2023-04-25T07:34:27;7.10;;;1.30;;
57241;SDS011;43095;53.302;5.786;2023-04-25T07:36:56;9.35;;;1.60;;
57241;SDS011;43095;53.302;5.786;2023-04-25T07:39:27;9.05;;;1.52;;
57241;SDS011;43095;53.302;5.786;2023-04-25T07:41:55;13.60;;;2.28;;
57241;SDS011;43095;53.302;5.786;2023-04-25T07:44:28;12.73;;;2.67;;
57241;SDS011;43095;53.302;5.786;2023-04-25T07:46:57;10.48;;;1.30;;
57241;SDS011;43095;53.302;5.786;2023-04-25T07:49:26;9.23;;;2.05;;
57241;SDS011;43095;53.302;5.786;2023-04-25T07:51:53;13.35;;;1.30;;
57241;SDS011;43095;53.302;5.786;2023-04-25T07:54:22;7.20;;;0.90;;
57241;SDS011;43095;53.302;5.786;2023-04-25T07:56:56;7.20;;;1.23;;
57241;SDS011;43095;53.302;5.786;2023-04-25T07:59:28;10.27;;;1.30;;
57241;SDS011;43095;53.302;5.786;2023-04-25T08:01:58;7.20;;;1.35;;
57241;SDS011;43095;53.302;5.786;2023-04-25T08:04:26;12.38;;;2.03;;
57241;SDS011;43095;53.302;5.786;2023-04-25T08:06:59;12.32;;;1.67;;
57241;SDS011;43095;53.302;5.786;2023-04-25T08:09:31;12.73;;;1.85;;
57241;SDS011;43095;53.302;5.786;2023-04-25T08:12:07;14.13;;;1.85;;
57241;SDS011;43095;53.302;5.786;2023-04-25T08:14:35;10.88;;;2.33;;
57241;SDS011;43095;53.302;5.786;2023-04-25T08:17:04;13.50;;;2.05;;
57241;SDS011;43095;53.302;5.786;2023-04-25T08:19:38;10.73;;;1.60;;
57241;SDS011;43095;53.302;5.786;2023-04-25T08:22:09;14.68;;;2.67;;
57241;SDS011;43095;53.302;5.786;2023-04-25T08:24:47;6.78;;;1.65;;
57241;SDS011;43095;53.302;5.786;2023-04-25T08:27:19;4.93;;;1.33;;
57241;SDS011;43095;53.302;5.786;2023-04-25T08:29:47;8.27;;;1.73;;
57241;SDS011;43095;53.302;5.786;2023-04-25T08:32:16;11.85;;;1.83;;
57241;SDS011;43095;53.302;5.786;2023-04-25T08:34:57;4.75;;;1.27;;
57241;SDS011;43095;53.302;5.786;2023-04-25T08:37:25;11.98;;;2.13;;
57241;SDS011;43095;53.302;5.786;2023-04-25T08:39:59;10.45;;;2.35;;
57241;SDS011;43095;53.302;5.786;2023-04-25T08:42:50;10.18;;;1.90;;
57241;SDS011;43095;53.302;5.786;2023-04-25T08:45:17;9.38;;;1.67;;
57241;SDS011;43095;53.302;5.786;2023-04-25T08:47:45;7.45;;;1.55;;
57241;SDS011;43095;53.302;5.786;2023-04-25T08:50:15;6.80;;;1.45;;
57241;SDS011;43095;53.302;5.786;2023-04-25T08:52:44;9.43;;;2.03;;
57241;SDS011;43095;53.302;5.786;2023-04-25T08:55:13;19.15;;;2.28;;
57241;SDS011;43095;53.302;5.786;2023-04-25T08:57:42;6.32;;;1.98;;
57241;SDS011;43095;53.302;5.786;2023-04-25T09:00:10;11.65;;;1.98;;
57241;SDS011;43095;53.302;5.786;2023-04-25T09:02:42;9.55;;;1.55;;
57241;SDS011;43095;53.302;5.786;2023-04-25T09:05:12;8.15;;;1.45;;
57241;SDS011;43095;53.302;5.786;2023-04-25T09:07:40;12.27;;;2.20;;
57241;SDS011;43095;53.302;5.786;2023-04-25T09:10:08;11.30;;;1.85;;
57241;SDS011;43095;53.302;5.786;2023-04-25T09:12:37;9.20;;;1.98;;
57241;SDS011;43095;53.302;5.786;2023-04-25T09:15:08;10.43;;;2.08;;
57241;SDS011;43095;53.302;5.786;2023-04-25T09:18:01;10.70;;;2.13;;
57241;SDS011;43095;53.302;5.786;2023-04-25T09:20:34;11.63;;;1.70;;
57241;SDS011;43095;53.302;5.786;2023-04-25T09:23:27;10.57;;;2.28;;
57241;SDS011;43095;53.302;5.786;2023-04-25T09:25:54;15.38;;;2.70;;
57241;SDS011;43095;53.302;5.786;2023-04-25T09:28:23;16.95;;;2.00;;
57241;SDS011;43095;53.302;5.786;2023-04-25T09:30:58;21.70;;;3.30;;
57241;SDS011;43095;53.302;5.786;2023-04-25T09:33:34;17.52;;;2.97;;
57241;SDS011;43095;53.302;5.786;2023-04-25T09:36:07;14.27;;;2.15;;
57241;SDS011;43095;53.302;5.786;2023-04-25T09:38:44;9.88;;;1.80;;
57241;SDS011;43095;53.302;5.786;2023-04-25T09:43:46;15.57;;;2.35;;
57241;SDS011;43095;53.302;5.786;2023-04-25T09:46:17;14.10;;;2.00;;
57241;SDS011;43095;53.302;5.786;2023-04-25T09:48:52;17.98;;;2.85;;
57241;SDS011;43095;53.302;5.786;2023-04-25T09:51:35;16.48;;;2.10;;
57241;SDS011;43095;53.302;5.786;2023-04-25T09:54:05;13.48;;;2.00;;
57241;SDS011;43095;53.302;5.786;2023-04-25T09:56:46;20.33;;;3.25;;
57241;SDS011;43095;53.302;5.786;2023-04-25T09:59:15;13.45;;;2.08;;
57241;SDS011;43095;53.302;5.786;2023-04-25T10:01:43;15.88;;;2.30;;
57241;SDS011;43095;53.302;5.786;2023-04-25T10:04:22;15.43;;;3.50;;
57241;SDS011;43095;53.302;5.786;2023-04-25T10:06:55;8.68;;;2.03;;
57241;SDS011;43095;53.302;5.786;2023-04-25T10:09:24;10.23;;;1.90;;
57241;SDS011;43095;53.302;5.786;2023-04-25T10:11:54;13.93;;;2.70;;
57241;SDS011;43095;53.302;5.786;2023-04-25T10:14:21;11.68;;;1.70;;
57241;SDS011;43095;53.302;5.786;2023-04-25T10:16:50;9.93;;;1.88;;
57241;SDS011;43095;53.302;5.786;2023-04-25T10:19:20;7.10;;;1.33;;
57241;SDS011;43095;53.302;5.786;2023-04-25T10:21:51;13.40;;;2.58;;
57241;SDS011;43095;53.302;5.786;2023-04-25T10:24:19;16.13;;;2.80;;
57241;SDS011;43095;53.302;5.786;2023-04-25T10:26:47;12.13;;;1.75;;
57241;SDS011;43095;53.302;5.786;2023-04-25T10:29:22;14.63;;;1.88;;
57241;SDS011;43095;53.302;5.786;2023-04-25T10:31:51;17.50;;;2.83;;
57241;SDS011;43095;53.302;5.786;2023-04-25T10:34:19;11.32;;;1.92;;
57241;SDS011;43095;53.302;5.786;2023-04-25T10:36:51;13.67;;;2.17;;
57241;SDS011;43095;53.302;5.786;2023-04-25T10:39:23;8.48;;;1.60;;
57241;SDS011;43095;53.302;5.786;2023-04-25T10:41:57;11.20;;;2.20;;
57241;SDS011;43095;53.302;5.786;2023-04-25T10:44:29;11.65;;;1.83;;
57241;SDS011;43095;53.302;5.786;2023-04-25T10:46:57;10.85;;;1.88;;
57241;SDS011;43095;53.302;5.786;2023-04-25T10:49:33;8.57;;;2.15;;
57241;SDS011;43095;53.302;5.786;2023-04-25T10:52:17;13.20;;;1.88;;
57241;SDS011;43095;53.302;5.786;2023-04-25T10:54:52;12.77;;;2.00;;
57241;SDS011;43095;53.302;5.786;2023-04-25T10:57:30;12.17;;;2.20;;
57241;SDS011;43095;53.302;5.786;2023-04-25T11:02:48;9.23;;;1.47;;
57241;SDS011;43095;53.302;5.786;2023-04-25T11:07:52;8.05;;;1.33;;
57241;SDS011;43095;53.302;5.786;2023-04-25T11:10:33;5.53;;;1.80;;
57241;SDS011;43095;53.302;5.786;2023-04-25T11:13:03;15.40;;;2.25;;
57241;SDS011;43095;53.302;5.786;2023-04-25T11:15:30;12.98;;;2.47;;
57241;SDS011;43095;53.302;5.786;2023-04-25T11:17:57;12.18;;;2.42;;
57241;SDS011;43095;53.302;5.786;2023-04-25T11:20:25;11.50;;;2.10;;
57241;SDS011;43095;53.302;5.786;2023-04-25T11:22:54;9.90;;;1.88;;
57241;SDS011;43095;53.302;5.786;2023-04-25T11:25:26;11.70;;;2.28;;
57241;SDS011;43095;53.302;5.786;2023-04-25T11:27:57;10.65;;;1.65;;
57241;SDS011;43095;53.302;5.786;2023-04-25T11:30:27;8.05;;;2.03;;
57241;SDS011;43095;53.302;5.786;2023-04-25T11:32:57;16.55;;;2.40;;
57241;SDS011;43095;53.302;5.786;2023-04-25T11:35:24;14.55;;;2.50;;
57241;SDS011;43095;53.302;5.786;2023-04-25T11:37:52;15.07;;;1.70;;
57241;SDS011;43095;53.302;5.786;2023-04-25T11:40:19;11.38;;;2.10;;
57241;SDS011;43095;53.302;5.786;2023-04-25T11:42:46;15.35;;;1.77;;
57241;SDS011;43095;53.302;5.786;2023-04-25T11:45:14;15.60;;;2.10;;
57241;SDS011;43095;53.302;5.786;2023-04-25T11:47:42;16.70;;;2.92;;
57241;SDS011;43095;53.302;5.786;2023-04-25T11:50:09;14.30;;;2.17;;
57241;SDS011;43095;53.302;5.786;2023-04-25T11:52:37;12.85;;;2.55;;
57241;SDS011;43095;53.302;5.786;2023-04-25T11:55:09;12.40;;;2.38;;
57241;SDS011;43095;53.302;5.786;2023-04-25T11:57:42;10.25;;;1.80;;
57241;SDS011;43095;53.302;5.786;2023-04-25T12:00:15;12.73;;;1.65;;
57241;SDS011;43095;53.302;5.786;2023-04-25T12:02:45;13.13;;;2.33;;
57241;SDS011;43095;53.302;5.786;2023-04-25T12:05:15;8.35;;;1.50;;
57241;SDS011;43095;53.302;5.786;2023-04-25T12:07:57;13.05;;;1.92;;
57241;SDS011;43095;53.302;5.786;2023-04-25T12:10:25;14.73;;;2.30;;
57241;SDS011;43095;53.302;5.786;2023-04-25T12:12:52;13.23;;;2.47;;
57241;SDS011;43095;53.302;5.786;2023-04-25T12:15:24;15.05;;;1.90;;
57241;SDS011;43095;53.302;5.786;2023-04-25T12:17:52;10.35;;;2.03;;
57241;SDS011;43095;53.302;5.786;2023-04-25T12:20:23;14.90;;;2.60;;
57241;SDS011;43095;53.302;5.786;2023-04-25T12:22:52;9.88;;;2.20;;
57241;SDS011;43095;53.302;5.786;2023-04-25T12:25:35;16.15;;;1.90;;
57241;SDS011;43095;53.302;5.786;2023-04-25T12:28:15;12.35;;;1.63;;
57241;SDS011;43095;53.302;5.786;2023-04-25T12:31:04;18.33;;;4.13;;
57241;SDS011;43095;53.302;5.786;2023-04-25T12:33:33;11.30;;;1.85;;
57241;SDS011;43095;53.302;5.786;2023-04-25T12:36:04;12.60;;;2.13;;
57241;SDS011;43095;53.302;5.786;2023-04-25T12:38:39;7.45;;;1.65;;
57241;SDS011;43095;53.302;5.786;2023-04-25T12:41:08;10.90;;;1.98;;
57241;SDS011;43095;53.302;5.786;2023-04-25T12:43:35;13.38;;;2.20;;
57241;SDS011;43095;53.302;5.786;2023-04-25T12:46:03;12.75;;;1.98;;
57241;SDS011;43095;53.302;5.786;2023-04-25T12:48:30;7.60;;;1.73;;
57241;SDS011;43095;53.302;5.786;2023-04-25T12:50:57;14.73;;;1.85;;
57241;SDS011;43095;53.302;5.786;2023-04-25T12:53:25;9.18;;;1.67;;
57241;SDS011;43095;53.302;5.786;2023-04-25T12:55:52;10.00;;;3.13;;
57241;SDS011;43095;53.302;5.786;2023-04-25T12:58:19;15.98;;;3.03;;
57241;SDS011;43095;53.302;5.786;2023-04-25T13:00:46;10.55;;;2.05;;
57241;SDS011;43095;53.302;5.786;2023-04-25T13:03:14;12.48;;;2.45;;
57241;SDS011;43095;53.302;5.786;2023-04-25T13:05:44;16.52;;;2.15;;
57241;SDS011;43095;53.302;5.786;2023-04-25T13:08:12;14.75;;;1.92;;
57241;SDS011;43095;53.302;5.786;2023-04-25T13:10:40;13.50;;;2.42;;
57241;SDS011;43095;53.302;5.786;2023-04-25T13:13:08;15.95;;;2.80;;
57241;SDS011;43095;53.302;5.786;2023-04-25T13:15:35;14.13;;;2.47;;
57241;SDS011;43095;53.302;5.786;2023-04-25T13:18:03;11.38;;;2.13;;
57241;SDS011;43095;53.302;5.786;2023-04-25T13:20:32;11.55;;;2.78;;
57241;SDS011;43095;53.302;5.786;2023-04-25T13:22:59;10.95;;;2.00;;
57241;SDS011;43095;53.302;5.786;2023-04-25T13:25:28;18.88;;;2.50;;
57241;SDS011;43095;53.302;5.786;2023-04-25T13:27:55;7.97;;;1.33;;
57241;SDS011;43095;53.302;5.786;2023-04-25T13:30:24;6.20;;;1.38;;
57241;SDS011;43095;53.302;5.786;2023-04-25T13:32:51;8.30;;;1.50;;
57241;SDS011;43095;53.302;5.786;2023-04-25T13:35:19;7.07;;;1.30;;
57241;SDS011;43095;53.302;5.786;2023-04-25T13:37:46;7.07;;;1.23;;
57241;SDS011;43095;53.302;5.786;2023-04-25T13:40:14;3.97;;;1.20;;
57241;SDS011;43095;53.302;5.786;2023-04-25T13:42:42;6.55;;;1.45;;
57241;SDS011;43095;53.302;5.786;2023-04-25T13:45:10;4.10;;;1.20;;
57241;SDS011;43095;53.302;5.786;2023-04-25T13:47:38;6.13;;;1.60;;
57241;SDS011;43095;53.302;5.786;2023-04-25T13:50:05;9.90;;;1.73;;
57241;SDS011;43095;53.302;5.786;2023-04-25T13:52:33;15.90;;;1.80;;
57241;SDS011;43095;53.302;5.786;2023-04-25T13:55:01;8.20;;;1.60;;
57241;SDS011;43095;53.302;5.786;2023-04-25T13:57:30;7.78;;;1.95;;
57241;SDS011;43095;53.302;5.786;2023-04-25T13:59:58;8.48;;;1.77;;
57241;SDS011;43095;53.302;5.786;2023-04-25T14:02:25;13.10;;;1.90;;
57241;SDS011;43095;53.302;5.786;2023-04-25T14:04:53;13.32;;;2.58;;
57241;SDS011;43095;53.302;5.786;2023-04-25T14:07:20;8.75;;;1.80;;
57241;SDS011;43095;53.302;5.786;2023-04-25T14:09:47;12.60;;;2.00;;
57241;SDS011;43095;53.302;5.786;2023-04-25T14:12:15;13.88;;;1.98;;
57241;SDS011;43095;53.302;5.786;2023-04-25T14:14:43;12.50;;;1.92;;
57241;SDS011;43095;53.302;5.786;2023-04-25T14:17:10;11.15;;;2.05;;
57241;SDS011;43095;53.302;5.786;2023-04-25T14:19:37;11.77;;;2.25;;
57241;SDS011;43095;53.302;5.786;2023-04-25T14:22:09;15.90;;;2.50;;
57241;SDS011;43095;53.302;5.786;2023-04-25T14:24:36;7.55;;;1.33;;
57241;SDS011;43095;53.302;5.786;2023-04-25T14:27:04;7.13;;;1.13;;
57241;SDS011;43095;53.302;5.786;2023-04-25T14:29:32;8.57;;;1.52;;
57241;SDS011;43095;53.302;5.786;2023-04-25T14:31:59;15.80;;;2.42;;
57241;SDS011;43095;53.302;5.786;2023-04-25T14:34:27;14.18;;;3.28;;
57241;SDS011;43095;53.302;5.786;2023-04-25T14:36:54;15.82;;;2.70;;
57241;SDS011;43095;53.302;5.786;2023-04-25T14:39:21;13.73;;;2.75;;
57241;SDS011;43095;53.302;5.786;2023-04-25T14:41:48;13.75;;;4.10;;
57241;SDS011;43095;53.302;5.786;2023-04-25T14:44:16;14.45;;;2.33;;
57241;SDS011;43095;53.302;5.786;2023-04-25T14:46:43;8.52;;;1.50;;
57241;SDS011;43095;53.302;5.786;2023-04-25T14:49:10;11.20;;;2.00;;
57241;SDS011;43095;53.302;5.786;2023-04-25T14:51:37;8.50;;;1.38;;
57241;SDS011;43095;53.302;5.786;2023-04-25T14:54:04;5.95;;;0.93;;
57241;SDS011;43095;53.302;5.786;2023-04-25T14:56:32;5.47;;;0.90;;
57241;SDS011;43095;53.302;5.786;2023-04-25T14:58:59;9.25;;;0.90;;
57241;SDS011;43095;53.302;5.786;2023-04-25T15:01:26;6.88;;;1.40;;
57241;SDS011;43095;53.302;5.786;2023-04-25T15:03:54;7.80;;;1.10;;
57241;SDS011;43095;53.302;5.786;2023-04-25T15:06:22;9.70;;;1.58;;
57241;SDS011;43095;53.302;5.786;2023-04-25T15:08:52;14.98;;;2.33;;
57241;SDS011;43095;53.302;5.786;2023-04-25T15:11:20;14.63;;;2.53;;